Rechercher aéroport 
image banner adimage banner adimage banner ad
image banner ad

1CL1 - Little Buttes Antique Airfield

Situé à Lancaster, United States

ICAO - 1CL1, IATA -

Données fournies par Airmate  

Information générale

Coordonnées: N34°47'39" W118°16'39"
Élévation : 2433 feet MSL.
Variation magnétique : 14° East
Voir autres Aéroports à California

Données opérationnelles

Special qualification required
Heure actuelle UTC:
Heure actuelle locale:
Météo à : KWJF - General Wm J Fox Airfield ( 8 km )
METAR: KWJF 292056Z 06008KT 10SM CLR 39/07 A2993 RMK AO2 SLP105 T03940072 58020
TAF: KWJF 291736Z 2918/3018 00000KT P6SM SKC FM291900 23010KT P6SM SKC FM292300 23015G23KT P6SM SKC FM300300 23012KT P6SM SKC FM300800 21007KT P6SM SKC
Voir NOTAMs / SUP AIP / TFR affectant cet aéroport [VIEW]
Fréquences de communication: [VIEW]

Pistes:

Identifiant RWYQFULongueur (ft)Largeur (ft)SurfaceLDA (ft)
06290080GRASS
24290080GRASS

Coordonnées de l'aéroport

Adresse: Lancaster United States

Vue satellite de 1CL1